sensor_id;sensor_type;location;lat;lon;timestamp;temperature;humidity
32502;DHT22;18952;52.516;13.460;2022-10-16T00:01:26;13.90;99.90
32502;DHT22;18952;52.516;13.460;2022-10-16T00:03:54;13.90;99.90
32502;DHT22;18952;52.516;13.460;2022-10-16T00:06:22;13.90;99.90
32502;DHT22;18952;52.516;13.460;2022-10-16T00:08:49;13.90;99.90
32502;DHT22;18952;52.516;13.460;2022-10-16T00:11:29;13.90;99.90
32502;DHT22;18952;52.516;13.460;2022-10-16T00:13:58;14.00;99.90
32502;DHT22;18952;52.516;13.460;2022-10-16T00:16:26;14.00;99.90
32502;DHT22;18952;52.516;13.460;2022-10-16T00:18:53;14.00;99.90
32502;DHT22;18952;52.516;13.460;2022-10-16T00:21:24;14.10;99.90
32502;DHT22;18952;52.516;13.460;2022-10-16T00:23:59;14.10;99.90
32502;DHT22;18952;52.516;13.460;2022-10-16T00:26:29;14.10;99.90
32502;DHT22;18952;52.516;13.460;2022-10-16T00:28:56;14.10;99.90
32502;DHT22;18952;52.516;13.460;2022-10-16T00:31:23;14.20;99.90
32502;DHT22;18952;52.516;13.460;2022-10-16T00:33:50;14.20;99.90
32502;DHT22;18952;52.516;13.460;2022-10-16T00:36:19;14.20;99.90
32502;DHT22;18952;52.516;13.460;2022-10-16T00:38:49;14.20;99.90
32502;DHT22;18952;52.516;13.460;2022-10-16T00:41:17;14.30;99.90
32502;DHT22;18952;52.516;13.460;2022-10-16T00:43:53;14.20;99.90
32502;DHT22;18952;52.516;13.460;2022-10-16T00:46:21;14.20;99.90
32502;DHT22;18952;52.516;13.460;2022-10-16T00:49:11;14.20;99.90
32502;DHT22;18952;52.516;13.460;2022-10-16T00:51:41;14.20;99.90
32502;DHT22;18952;52.516;13.460;2022-10-16T00:54:14;14.20;99.90
32502;DHT22;18952;52.516;13.460;2022-10-16T00:56:43;14.30;99.90
32502;DHT22;18952;52.516;13.460;2022-10-16T01:01:46;14.30;99.90
32502;DHT22;18952;52.516;13.460;2022-10-16T01:04:13;14.30;99.90
32502;DHT22;18952;52.516;13.460;2022-10-16T01:06:47;14.30;99.90
32502;DHT22;18952;52.516;13.460;2022-10-16T01:09:33;14.30;99.90
32502;DHT22;18952;52.516;13.460;2022-10-16T01:17:49;14.30;99.90
32502;DHT22;18952;52.516;13.460;2022-10-16T01:28:24;14.30;99.90
32502;DHT22;18952;52.516;13.460;2022-10-16T01:30:57;14.30;99.90
32502;DHT22;18952;52.516;13.460;2022-10-16T01:33:38;14.30;99.90
32502;DHT22;18952;52.516;13.460;2022-10-16T01:36:13;14.30;99.90
32502;DHT22;18952;52.516;13.460;2022-10-16T01:38:44;14.30;99.90
32502;DHT22;18952;52.516;13.460;2022-10-16T01:41:42;14.30;99.90
32502;DHT22;18952;52.516;13.460;2022-10-16T01:44:30;14.30;99.90
32502;DHT22;18952;52.516;13.460;2022-10-16T01:46:59;14.30;99.90
32502;DHT22;18952;52.516;13.460;2022-10-16T01:49:30;14.30;99.90
32502;DHT22;18952;52.516;13.460;2022-10-16T01:52:02;14.30;99.90
32502;DHT22;18952;52.516;13.460;2022-10-16T01:54:32;14.30;99.90
32502;DHT22;18952;52.516;13.460;2022-10-16T01:57:00;14.30;99.90
32502;DHT22;18952;52.516;13.460;2022-10-16T01:59:30;14.30;99.90
32502;DHT22;18952;52.516;13.460;2022-10-16T02:02:05;14.30;99.90
32502;DHT22;18952;52.516;13.460;2022-10-16T02:04:38;14.30;99.90
32502;DHT22;18952;52.516;13.460;2022-10-16T02:07:06;14.30;99.90
32502;DHT22;18952;52.516;13.460;2022-10-16T02:09:34;14.30;99.90
32502;DHT22;18952;52.516;13.460;2022-10-16T02:12:06;14.30;99.90
32502;DHT22;18952;52.516;13.460;2022-10-16T02:14:34;14.40;99.90
32502;DHT22;18952;52.516;13.460;2022-10-16T02:17:12;14.40;99.90
32502;DHT22;18952;52.516;13.460;2022-10-16T02:19:40;14.40;99.90
32502;DHT22;18952;52.516;13.460;2022-10-16T02:22:09;14.40;99.90
32502;DHT22;18952;52.516;13.460;2022-10-16T02:28:07;14.40;99.90
32502;DHT22;18952;52.516;13.460;2022-10-16T02:33:12;14.40;99.90
32502;DHT22;18952;52.516;13.460;2022-10-16T02:35:41;14.40;99.90
32502;DHT22;18952;52.516;13.460;2022-10-16T02:38:09;14.40;99.90
32502;DHT22;18952;52.516;13.460;2022-10-16T02:40:42;14.40;99.90
32502;DHT22;18952;52.516;13.460;2022-10-16T02:43:09;14.40;99.90
32502;DHT22;18952;52.516;13.460;2022-10-16T02:45:37;14.40;99.90
32502;DHT22;18952;52.516;13.460;2022-10-16T02:48:04;14.40;99.90
32502;DHT22;18952;52.516;13.460;2022-10-16T02:50:31;14.40;99.90
32502;DHT22;18952;52.516;13.460;2022-10-16T02:52:58;14.40;99.90
32502;DHT22;18952;52.516;13.460;2022-10-16T02:55:25;14.50;99.90
32502;DHT22;18952;52.516;13.460;2022-10-16T02:57:52;14.50;99.90
32502;DHT22;18952;52.516;13.460;2022-10-16T03:00:18;14.50;99.90
32502;DHT22;18952;52.516;13.460;2022-10-16T03:02:45;14.50;99.90
32502;DHT22;18952;52.516;13.460;2022-10-16T03:05:12;14.50;99.90
32502;DHT22;18952;52.516;13.460;2022-10-16T03:07:39;14.50;99.90
32502;DHT22;18952;52.516;13.460;2022-10-16T03:10:08;14.50;99.90
32502;DHT22;18952;52.516;13.460;2022-10-16T03:12:35;14.50;99.90
32502;DHT22;18952;52.516;13.460;2022-10-16T03:15:02;14.50;99.90
32502;DHT22;18952;52.516;13.460;2022-10-16T03:17:32;14.40;99.90
32502;DHT22;18952;52.516;13.460;2022-10-16T03:20:03;14.40;99.90
32502;DHT22;18952;52.516;13.460;2022-10-16T03:22:29;14.40;99.90
32502;DHT22;18952;52.516;13.460;2022-10-16T03:24:56;14.40;99.90
32502;DHT22;18952;52.516;13.460;2022-10-16T03:27:23;14.40;99.90
32502;DHT22;18952;52.516;13.460;2022-10-16T03:29:50;14.40;99.90
32502;DHT22;18952;52.516;13.460;2022-10-16T03:32:16;14.40;99.90
32502;DHT22;18952;52.516;13.460;2022-10-16T03:34:43;14.30;99.90
32502;DHT22;18952;52.516;13.460;2022-10-16T03:37:10;14.30;99.90
32502;DHT22;18952;52.516;13.460;2022-10-16T03:39:36;14.30;99.90
32502;DHT22;18952;52.516;13.460;2022-10-16T03:42:03;14.30;99.90
32502;DHT22;18952;52.516;13.460;2022-10-16T03:44:30;14.30;99.90
32502;DHT22;18952;52.516;13.460;2022-10-16T03:46:56;14.20;99.90
32502;DHT22;18952;52.516;13.460;2022-10-16T03:49:23;14.20;99.90
32502;DHT22;18952;52.516;13.460;2022-10-16T03:51:50;14.20;99.90
32502;DHT22;18952;52.516;13.460;2022-10-16T03:54:16;14.20;99.90
32502;DHT22;18952;52.516;13.460;2022-10-16T03:56:43;14.20;99.90
32502;DHT22;18952;52.516;13.460;2022-10-16T03:59:10;14.10;99.90
32502;DHT22;18952;52.516;13.460;2022-10-16T04:01:37;14.10;99.90
32502;DHT22;18952;52.516;13.460;2022-10-16T04:04:04;14.10;99.90
32502;DHT22;18952;52.516;13.460;2022-10-16T04:06:31;14.10;99.90
32502;DHT22;18952;52.516;13.460;2022-10-16T04:08:59;14.10;99.90
32502;DHT22;18952;52.516;13.460;2022-10-16T04:11:35;14.10;99.90
32502;DHT22;18952;52.516;13.460;2022-10-16T04:14:06;14.10;99.90
32502;DHT22;18952;52.516;13.460;2022-10-16T04:16:36;14.10;99.90
32502;DHT22;18952;52.516;13.460;2022-10-16T04:19:04;14.00;99.90
32502;DHT22;18952;52.516;13.460;2022-10-16T04:21:33;14.00;99.90
32502;DHT22;18952;52.516;13.460;2022-10-16T04:24:01;14.00;99.90
32502;DHT22;18952;52.516;13.460;2022-10-16T04:26:32;14.00;99.90
32502;DHT22;18952;52.516;13.460;2022-10-16T04:29:00;14.00;99.90
32502;DHT22;18952;52.516;13.460;2022-10-16T04:31:28;14.00;99.90
32502;DHT22;18952;52.516;13.460;2022-10-16T04:33:58;14.00;99.90
32502;DHT22;18952;52.516;13.460;2022-10-16T04:36:27;13.90;99.90
32502;DHT22;18952;52.516;13.460;2022-10-16T04:38:57;13.90;99.90
32502;DHT22;18952;52.516;13.460;2022-10-16T04:41:27;14.00;99.90
32502;DHT22;18952;52.516;13.460;2022-10-16T04:43:58;13.90;99.90
32502;DHT22;18952;52.516;13.460;2022-10-16T04:46:24;13.90;99.90
32502;DHT22;18952;52.516;13.460;2022-10-16T04:48:51;13.90;99.90
32502;DHT22;18952;52.516;13.460;2022-10-16T04:51:18;14.00;99.90
32502;DHT22;18952;52.516;13.460;2022-10-16T04:53:44;14.00;99.90
32502;DHT22;18952;52.516;13.460;2022-10-16T04:56:11;14.00;99.90
32502;DHT22;18952;52.516;13.460;2022-10-16T04:58:37;14.00;99.90
32502;DHT22;18952;52.516;13.460;2022-10-16T05:01:05;14.00;99.90
32502;DHT22;18952;52.516;13.460;2022-10-16T05:03:32;13.90;99.90
32502;DHT22;18952;52.516;13.460;2022-10-16T05:05:59;13.90;99.90
32502;DHT22;18952;52.516;13.460;2022-10-16T05:08:27;13.90;99.90
32502;DHT22;18952;52.516;13.460;2022-10-16T05:10:55;13.90;99.90
32502;DHT22;18952;52.516;13.460;2022-10-16T05:13:23;13.90;99.90
32502;DHT22;18952;52.516;13.460;2022-10-16T05:15:50;13.80;99.90
32502;DHT22;18952;52.516;13.460;2022-10-16T05:18:18;13.80;99.90
32502;DHT22;18952;52.516;13.460;2022-10-16T05:20:46;13.80;99.90
32502;DHT22;18952;52.516;13.460;2022-10-16T05:23:16;13.80;99.90
32502;DHT22;18952;52.516;13.460;2022-10-16T05:25:51;13.70;99.90
32502;DHT22;18952;52.516;13.460;2022-10-16T05:28:20;13.70;99.90
32502;DHT22;18952;52.516;13.460;2022-10-16T05:30:47;13.70;99.90
32502;DHT22;18952;52.516;13.460;2022-10-16T05:33:15;13.80;99.90
32502;DHT22;18952;52.516;13.460;2022-10-16T05:35:45;13.70;99.90
32502;DHT22;18952;52.516;13.460;2022-10-16T05:38:17;13.70;99.90
32502;DHT22;18952;52.516;13.460;2022-10-16T05:40:50;13.70;99.90
32502;DHT22;18952;52.516;13.460;2022-10-16T05:43:18;13.70;99.90
32502;DHT22;18952;52.516;13.460;2022-10-16T05:45:54;13.70;99.90
32502;DHT22;18952;52.516;13.460;2022-10-16T05:48:22;13.70;99.90
32502;DHT22;18952;52.516;13.460;2022-10-16T05:51:00;13.60;99.90
32502;DHT22;18952;52.516;13.460;2022-10-16T05:53:30;13.60;99.90
32502;DHT22;18952;52.516;13.460;2022-10-16T05:55:59;13.60;99.90
32502;DHT22;18952;52.516;13.460;2022-10-16T05:58:29;13.60;99.90
32502;DHT22;18952;52.516;13.460;2022-10-16T06:01:06;13.70;99.90
32502;DHT22;18952;52.516;13.460;2022-10-16T06:03:34;13.70;99.90
32502;DHT22;18952;52.516;13.460;2022-10-16T06:06:11;13.70;99.90
32502;DHT22;18952;52.516;13.460;2022-10-16T06:08:40;13.70;99.90
32502;DHT22;18952;52.516;13.460;2022-10-16T06:11:09;13.70;99.90
32502;DHT22;18952;52.516;13.460;2022-10-16T06:13:37;13.70;99.90
32502;DHT22;18952;52.516;13.460;2022-10-16T06:16:04;13.70;99.90
32502;DHT22;18952;52.516;13.460;2022-10-16T06:18:32;13.80;99.90
32502;DHT22;18952;52.516;13.460;2022-10-16T06:20:59;13.80;99.90
32502;DHT22;18952;52.516;13.460;2022-10-16T06:23:28;13.90;99.90
32502;DHT22;18952;52.516;13.460;2022-10-16T06:26:13;13.90;99.90
32502;DHT22;18952;52.516;13.460;2022-10-16T06:28:41;14.00;99.90
32502;DHT22;18952;52.516;13.460;2022-10-16T06:31:09;14.00;99.90
32502;DHT22;18952;52.516;13.460;2022-10-16T06:33:39;14.00;99.90
32502;DHT22;18952;52.516;13.460;2022-10-16T06:36:11;14.10;99.90
32502;DHT22;18952;52.516;13.460;2022-10-16T06:38:39;14.10;99.90
32502;DHT22;18952;52.516;13.460;2022-10-16T06:41:07;14.10;99.90
32502;DHT22;18952;52.516;13.460;2022-10-16T06:43:38;14.20;99.90
32502;DHT22;18952;52.516;13.460;2022-10-16T06:46:06;14.20;99.90
32502;DHT22;18952;52.516;13.460;2022-10-16T06:48:34;14.20;99.90
32502;DHT22;18952;52.516;13.460;2022-10-16T06:51:16;14.20;99.90
32502;DHT22;18952;52.516;13.460;2022-10-16T06:53:47;14.30;99.90
32502;DHT22;18952;52.516;13.460;2022-10-16T06:56:29;14.30;99.90
32502;DHT22;18952;52.516;13.460;2022-10-16T06:58:57;14.30;99.90
32502;DHT22;18952;52.516;13.460;2022-10-16T07:01:24;14.30;99.90
32502;DHT22;18952;52.516;13.460;2022-10-16T07:03:52;14.40;99.90
32502;DHT22;18952;52.516;13.460;2022-10-16T07:06:30;14.40;99.90
32502;DHT22;18952;52.516;13.460;2022-10-16T07:08:57;14.40;99.90
32502;DHT22;18952;52.516;13.460;2022-10-16T07:11:24;14.50;99.90
32502;DHT22;18952;52.516;13.460;2022-10-16T07:13:51;14.60;99.90
32502;DHT22;18952;52.516;13.460;2022-10-16T07:16:30;14.70;99.90
32502;DHT22;18952;52.516;13.460;2022-10-16T07:18:59;14.80;99.90
32502;DHT22;18952;52.516;13.460;2022-10-16T07:21:37;14.90;99.90
32502;DHT22;18952;52.516;13.460;2022-10-16T07:24:06;15.10;99.90
32502;DHT22;18952;52.516;13.460;2022-10-16T07:26:44;15.10;99.90
32502;DHT22;18952;52.516;13.460;2022-10-16T07:29:19;15.20;99.90
32502;DHT22;18952;52.516;13.460;2022-10-16T07:31:48;15.30;99.90
32502;DHT22;18952;52.516;13.460;2022-10-16T07:37:47;15.40;99.90
32502;DHT22;18952;52.516;13.460;2022-10-16T07:40:14;15.40;99.90
32502;DHT22;18952;52.516;13.460;2022-10-16T07:42:44;15.40;99.90
32502;DHT22;18952;52.516;13.460;2022-10-16T07:45:10;15.50;99.90
32502;DHT22;18952;52.516;13.460;2022-10-16T07:47:37;15.50;99.90
32502;DHT22;18952;52.516;13.460;2022-10-16T07:50:04;15.60;99.90
32502;DHT22;18952;52.516;13.460;2022-10-16T07:52:31;15.60;99.90
32502;DHT22;18952;52.516;13.460;2022-10-16T07:54:58;15.60;99.90
32502;DHT22;18952;52.516;13.460;2022-10-16T07:57:24;15.60;99.90
32502;DHT22;18952;52.516;13.460;2022-10-16T07:59:51;15.60;99.90
32502;DHT22;18952;52.516;13.460;2022-10-16T08:02:23;15.60;99.90
32502;DHT22;18952;52.516;13.460;2022-10-16T08:04:49;15.60;99.90
32502;DHT22;18952;52.516;13.460;2022-10-16T08:07:16;15.60;99.90
32502;DHT22;18952;52.516;13.460;2022-10-16T08:09:43;15.60;99.90
32502;DHT22;18952;52.516;13.460;2022-10-16T08:12:10;15.70;99.90
32502;DHT22;18952;52.516;13.460;2022-10-16T08:14:52;15.70;99.90
32502;DHT22;18952;52.516;13.460;2022-10-16T08:17:19;15.70;99.90
32502;DHT22;18952;52.516;13.460;2022-10-16T08:19:47;15.70;99.90
32502;DHT22;18952;52.516;13.460;2022-10-16T08:22:19;15.60;99.90
32502;DHT22;18952;52.516;13.460;2022-10-16T08:24:50;15.70;99.90
32502;DHT22;18952;52.516;13.460;2022-10-16T08:27:20;15.70;99.90
32502;DHT22;18952;52.516;13.460;2022-10-16T08:29:48;15.70;99.90
32502;DHT22;18952;52.516;13.460;2022-10-16T08:32:22;15.70;99.90
32502;DHT22;18952;52.516;13.460;2022-10-16T08:34:54;15.70;99.90
32502;DHT22;18952;52.516;13.460;2022-10-16T08:37:22;15.70;99.90
32502;DHT22;18952;52.516;13.460;2022-10-16T08:39:51;15.70;99.90
32502;DHT22;18952;52.516;13.460;2022-10-16T08:48:54;15.70;99.90
32502;DHT22;18952;52.516;13.460;2022-10-16T08:51:24;15.70;99.90
32502;DHT22;18952;52.516;13.460;2022-10-16T08:53:58;15.70;99.90
32502;DHT22;18952;52.516;13.460;2022-10-16T08:56:25;15.70;99.90
32502;DHT22;18952;52.516;13.460;2022-10-16T08:58:53;15.70;99.90
32502;DHT22;18952;52.516;13.460;2022-10-16T09:01:39;15.70;99.90
32502;DHT22;18952;52.516;13.460;2022-10-16T09:04:26;15.70;99.90
32502;DHT22;18952;52.516;13.460;2022-10-16T09:09:58;15.70;99.90
32502;DHT22;18952;52.516;13.460;2022-10-16T09:12:49;15.70;99.90
32502;DHT22;18952;52.516;13.460;2022-10-16T09:15:37;15.90;99.90
32502;DHT22;18952;52.516;13.460;2022-10-16T09:18:29;16.00;99.90
32502;DHT22;18952;52.516;13.460;2022-10-16T09:21:27;16.10;99.90
32502;DHT22;18952;52.516;13.460;2022-10-16T09:23:59;16.10;99.90
32502;DHT22;18952;52.516;13.460;2022-10-16T09:26:26;16.20;99.90
32502;DHT22;18952;52.516;13.460;2022-10-16T09:28:53;16.20;99.90
32502;DHT22;18952;52.516;13.460;2022-10-16T09:31:22;16.30;99.90
32502;DHT22;18952;52.516;13.460;2022-10-16T09:34:00;16.30;99.90
32502;DHT22;18952;52.516;13.460;2022-10-16T09:36:29;16.20;99.90
32502;DHT22;18952;52.516;13.460;2022-10-16T09:39:10;16.20;99.90
32502;DHT22;18952;52.516;13.460;2022-10-16T09:41:42;16.20;99.90
32502;DHT22;18952;52.516;13.460;2022-10-16T09:44:29;16.20;99.90
32502;DHT22;18952;52.516;13.460;2022-10-16T09:47:15;16.20;99.90
32502;DHT22;18952;52.516;13.460;2022-10-16T09:50:04;16.20;99.90
32502;DHT22;18952;52.516;13.460;2022-10-16T09:52:32;16.30;99.90
32502;DHT22;18952;52.516;13.460;2022-10-16T09:55:16;16.30;99.90
32502;DHT22;18952;52.516;13.460;2022-10-16T09:57:53;16.30;99.90
32502;DHT22;18952;52.516;13.460;2022-10-16T10:00:22;16.30;99.90
32502;DHT22;18952;52.516;13.460;2022-10-16T10:02:53;16.40;99.90
32502;DHT22;18952;52.516;13.460;2022-10-16T10:05:24;16.40;99.90
32502;DHT22;18952;52.516;13.460;2022-10-16T10:07:59;16.30;99.90
32502;DHT22;18952;52.516;13.460;2022-10-16T10:10:36;16.40;99.90
32502;DHT22;18952;52.516;13.460;2022-10-16T10:13:20;16.50;99.90
32502;DHT22;18952;52.516;13.460;2022-10-16T10:15:47;16.60;99.90
32502;DHT22;18952;52.516;13.460;2022-10-16T10:18:21;16.60;99.90
32502;DHT22;18952;52.516;13.460;2022-10-16T10:21:03;16.80;99.90
32502;DHT22;18952;52.516;13.460;2022-10-16T10:23:35;16.80;99.90
32502;DHT22;18952;52.516;13.460;2022-10-16T10:29:14;16.90;99.90
32502;DHT22;18952;52.516;13.460;2022-10-16T10:37:51;17.00;99.90
32502;DHT22;18952;52.516;13.460;2022-10-16T10:43:48;17.10;99.90
32502;DHT22;18952;52.516;13.460;2022-10-16T10:46:03;17.20;99.90
32502;DHT22;18952;52.516;13.460;2022-10-16T10:54:36;17.40;99.90
32502;DHT22;18952;52.516;13.460;2022-10-16T10:59:41;17.50;99.90
32502;DHT22;18952;52.516;13.460;2022-10-16T11:05:12;17.70;99.90
32502;DHT22;18952;52.516;13.460;2022-10-16T11:07:52;17.70;99.90
32502;DHT22;18952;52.516;13.460;2022-10-16T11:10:28;17.80;99.90
32502;DHT22;18952;52.516;13.460;2022-10-16T11:15:52;17.90;99.90
32502;DHT22;18952;52.516;13.460;2022-10-16T11:18:27;17.80;99.90
32502;DHT22;18952;52.516;13.460;2022-10-16T11:21:06;17.80;99.90
32502;DHT22;18952;52.516;13.460;2022-10-16T11:23:51;17.80;99.90
32502;DHT22;18952;52.516;13.460;2022-10-16T11:26:23;17.90;99.90
32502;DHT22;18952;52.516;13.460;2022-10-16T11:28:56;17.90;99.90
32502;DHT22;18952;52.516;13.460;2022-10-16T11:31:43;17.90;99.90
32502;DHT22;18952;52.516;13.460;2022-10-16T11:34:25;17.90;99.90
32502;DHT22;18952;52.516;13.460;2022-10-16T11:40:14;17.80;99.90
32502;DHT22;18952;52.516;13.460;2022-10-16T11:42:50;17.70;99.90
32502;DHT22;18952;52.516;13.460;2022-10-16T11:45:32;17.80;99.90
32502;DHT22;18952;52.516;13.460;2022-10-16T11:48:32;17.70;99.90
32502;DHT22;18952;52.516;13.460;2022-10-16T11:51:25;17.80;99.90
32502;DHT22;18952;52.516;13.460;2022-10-16T11:54:21;17.80;99.90
32502;DHT22;18952;52.516;13.460;2022-10-16T11:56:51;17.70;99.90
32502;DHT22;18952;52.516;13.460;2022-10-16T12:02:38;17.70;99.90
32502;DHT22;18952;52.516;13.460;2022-10-16T12:05:29;17.70;99.90
32502;DHT22;18952;52.516;13.460;2022-10-16T12:08:11;17.60;99.90
32502;DHT22;18952;52.516;13.460;2022-10-16T12:10:41;17.50;99.90
32502;DHT22;18952;52.516;13.460;2022-10-16T12:13:34;17.50;99.90
32502;DHT22;18952;52.516;13.460;2022-10-16T12:16:27;17.50;99.90
32502;DHT22;18952;52.516;13.460;2022-10-16T12:19:14;17.60;99.90
32502;DHT22;18952;52.516;13.460;2022-10-16T12:21:42;17.70;99.90
32502;DHT22;18952;52.516;13.460;2022-10-16T12:27:01;18.00;99.90
32502;DHT22;18952;52.516;13.460;2022-10-16T12:29:39;18.20;99.90
32502;DHT22;18952;52.516;13.460;2022-10-16T12:32:38;18.30;99.90
32502;DHT22;18952;52.516;13.460;2022-10-16T12:35:29;18.40;99.90
32502;DHT22;18952;52.516;13.460;2022-10-16T12:41:05;18.70;99.90
32502;DHT22;18952;52.516;13.460;2022-10-16T12:48:38;19.00;99.90
32502;DHT22;18952;52.516;13.460;2022-10-16T12:59:50;19.30;99.90
32502;DHT22;18952;52.516;13.460;2022-10-16T13:05:42;19.50;99.90
32502;DHT22;18952;52.516;13.460;2022-10-16T13:08:33;19.70;99.90
32502;DHT22;18952;52.516;13.460;2022-10-16T13:11:12;19.70;99.90
32502;DHT22;18952;52.516;13.460;2022-10-16T13:16:45;19.90;99.90
32502;DHT22;18952;52.516;13.460;2022-10-16T13:24:58;19.90;99.90
32502;DHT22;18952;52.516;13.460;2022-10-16T13:27:59;19.90;99.90
32502;DHT22;18952;52.516;13.460;2022-10-16T13:30:28;20.00;99.90
32502;DHT22;18952;52.516;13.460;2022-10-16T13:33:12;20.00;99.90
32502;DHT22;18952;52.516;13.460;2022-10-16T13:35:48;20.10;99.90
32502;DHT22;18952;52.516;13.460;2022-10-16T13:38:20;20.20;99.90
32502;DHT22;18952;52.516;13.460;2022-10-16T13:41:05;20.30;99.90
32502;DHT22;18952;52.516;13.460;2022-10-16T13:43:39;20.30;99.90
32502;DHT22;18952;52.516;13.460;2022-10-16T13:46:16;20.30;99.90
32502;DHT22;18952;52.516;13.460;2022-10-16T13:49:00;20.30;99.90
32502;DHT22;18952;52.516;13.460;2022-10-16T13:51:30;20.30;99.90
32502;DHT22;18952;52.516;13.460;2022-10-16T13:53:57;20.20;99.90
32502;DHT22;18952;52.516;13.460;2022-10-16T13:56:27;20.20;99.90
32502;DHT22;18952;52.516;13.460;2022-10-16T13:59:06;20.20;99.90
32502;DHT22;18952;52.516;13.460;2022-10-16T14:01:41;20.20;99.90
32502;DHT22;18952;52.516;13.460;2022-10-16T14:04:12;20.30;99.90
32502;DHT22;18952;52.516;13.460;2022-10-16T14:06:45;20.10;99.90
32502;DHT22;18952;52.516;13.460;2022-10-16T14:12:14;20.10;99.90
32502;DHT22;18952;52.516;13.460;2022-10-16T14:14:48;20.10;99.90
32502;DHT22;18952;52.516;13.460;2022-10-16T14:17:27;20.20;99.90
32502;DHT22;18952;52.516;13.460;2022-10-16T14:19:57;20.20;99.90
32502;DHT22;18952;52.516;13.460;2022-10-16T14:22:35;20.30;99.90
32502;DHT22;18952;52.516;13.460;2022-10-16T14:28:20;20.20;99.90
32502;DHT22;18952;52.516;13.460;2022-10-16T14:30:58;20.10;99.90
32502;DHT22;18952;52.516;13.460;2022-10-16T14:33:33;19.90;99.90
32502;DHT22;18952;52.516;13.460;2022-10-16T14:38:28;20.00;99.90
32502;DHT22;18952;52.516;13.460;2022-10-16T14:40:57;20.10;99.90
32502;DHT22;18952;52.516;13.460;2022-10-16T14:43:39;20.10;99.90
32502;DHT22;18952;52.516;13.460;2022-10-16T14:46:19;20.10;99.90
32502;DHT22;18952;52.516;13.460;2022-10-16T14:48:58;20.10;99.90
32502;DHT22;18952;52.516;13.460;2022-10-16T14:51:27;20.10;99.90
32502;DHT22;18952;52.516;13.460;2022-10-16T14:53:53;20.00;99.90
32502;DHT22;18952;52.516;13.460;2022-10-16T14:56:30;19.90;99.90
32502;DHT22;18952;52.516;13.460;2022-10-16T14:58:59;19.90;99.90
32502;DHT22;18952;52.516;13.460;2022-10-16T15:01:26;19.90;99.90
32502;DHT22;18952;52.516;13.460;2022-10-16T15:03:53;19.90;99.90
32502;DHT22;18952;52.516;13.460;2022-10-16T15:06:20;19.80;99.90
32502;DHT22;18952;52.516;13.460;2022-10-16T15:08:47;19.80;99.90
32502;DHT22;18952;52.516;13.460;2022-10-16T15:11:16;19.70;99.90
32502;DHT22;18952;52.516;13.460;2022-10-16T15:13:44;19.70;99.90
32502;DHT22;18952;52.516;13.460;2022-10-16T15:16:13;19.50;99.90
32502;DHT22;18952;52.516;13.460;2022-10-16T15:18:40;19.50;99.90
32502;DHT22;18952;52.516;13.460;2022-10-16T15:21:07;19.40;99.90
32502;DHT22;18952;52.516;13.460;2022-10-16T15:23:34;19.30;99.90
32502;DHT22;18952;52.516;13.460;2022-10-16T15:26:01;19.20;99.90
32502;DHT22;18952;52.516;13.460;2022-10-16T15:28:27;19.00;99.90
32502;DHT22;18952;52.516;13.460;2022-10-16T15:30:55;18.80;99.90
32502;DHT22;18952;52.516;13.460;2022-10-16T15:33:24;18.70;99.90
32502;DHT22;18952;52.516;13.460;2022-10-16T15:35:52;18.60;99.90
32502;DHT22;18952;52.516;13.460;2022-10-16T15:38:21;18.50;99.90
32502;DHT22;18952;52.516;13.460;2022-10-16T15:40:48;18.50;99.90
32502;DHT22;18952;52.516;13.460;2022-10-16T15:43:16;18.40;99.90
32502;DHT22;18952;52.516;13.460;2022-10-16T15:45:43;18.40;99.90
32502;DHT22;18952;52.516;13.460;2022-10-16T15:48:13;18.30;99.90
32502;DHT22;18952;52.516;13.460;2022-10-16T15:50:41;18.20;99.90
32502;DHT22;18952;52.516;13.460;2022-10-16T15:53:13;18.20;99.90
32502;DHT22;18952;52.516;13.460;2022-10-16T15:55:40;18.10;99.90
32502;DHT22;18952;52.516;13.460;2022-10-16T15:58:07;18.00;99.90
32502;DHT22;18952;52.516;13.460;2022-10-16T16:00:36;18.00;99.90
32502;DHT22;18952;52.516;13.460;2022-10-16T16:03:05;17.90;99.90
32502;DHT22;18952;52.516;13.460;2022-10-16T16:05:33;17.90;99.90
32502;DHT22;18952;52.516;13.460;2022-10-16T16:08:08;17.80;99.90
32502;DHT22;18952;52.516;13.460;2022-10-16T16:10:35;17.70;99.90
32502;DHT22;18952;52.516;13.460;2022-10-16T16:13:02;17.60;99.90
32502;DHT22;18952;52.516;13.460;2022-10-16T16:15:30;17.60;99.90
32502;DHT22;18952;52.516;13.460;2022-10-16T16:17:58;17.50;99.90
32502;DHT22;18952;52.516;13.460;2022-10-16T16:20:26;17.50;99.90
32502;DHT22;18952;52.516;13.460;2022-10-16T16:22:54;17.40;99.90
32502;DHT22;18952;52.516;13.460;2022-10-16T16:25:22;17.40;99.90
32502;DHT22;18952;52.516;13.460;2022-10-16T16:27:48;17.30;99.90
32502;DHT22;18952;52.516;13.460;2022-10-16T16:30:15;17.20;99.90
32502;DHT22;18952;52.516;13.460;2022-10-16T16:32:51;17.20;99.90
32502;DHT22;18952;52.516;13.460;2022-10-16T16:35:18;17.20;99.90
32502;DHT22;18952;52.516;13.460;2022-10-16T16:37:46;17.10;99.90
32502;DHT22;18952;52.516;13.460;2022-10-16T16:40:12;17.00;99.90
32502;DHT22;18952;52.516;13.460;2022-10-16T16:42:39;17.00;99.90
32502;DHT22;18952;52.516;13.460;2022-10-16T16:45:07;16.90;99.90
32502;DHT22;18952;52.516;13.460;2022-10-16T16:47:34;16.90;99.90
32502;DHT22;18952;52.516;13.460;2022-10-16T16:50:00;16.80;99.90
32502;DHT22;18952;52.516;13.460;2022-10-16T16:52:29;16.80;99.90
32502;DHT22;18952;52.516;13.460;2022-10-16T16:54:55;16.80;99.90
32502;DHT22;18952;52.516;13.460;2022-10-16T16:57:22;16.70;99.90
32502;DHT22;18952;52.516;13.460;2022-10-16T16:59:50;16.70;99.90
32502;DHT22;18952;52.516;13.460;2022-10-16T17:02:17;16.60;99.90
32502;DHT22;18952;52.516;13.460;2022-10-16T17:04:44;16.60;99.90
32502;DHT22;18952;52.516;13.460;2022-10-16T17:07:10;16.60;99.90
32502;DHT22;18952;52.516;13.460;2022-10-16T17:09:37;16.50;99.90
32502;DHT22;18952;52.516;13.460;2022-10-16T17:12:04;16.50;99.90
32502;DHT22;18952;52.516;13.460;2022-10-16T17:14:30;16.50;99.90
32502;DHT22;18952;52.516;13.460;2022-10-16T17:16:57;16.50;99.90
32502;DHT22;18952;52.516;13.460;2022-10-16T17:19:24;16.40;99.90
32502;DHT22;18952;52.516;13.460;2022-10-16T17:21:51;16.40;99.90
32502;DHT22;18952;52.516;13.460;2022-10-16T17:24:18;16.40;99.90
32502;DHT22;18952;52.516;13.460;2022-10-16T17:26:44;16.40;99.90
32502;DHT22;18952;52.516;13.460;2022-10-16T17:29:12;16.30;99.90
32502;DHT22;18952;52.516;13.460;2022-10-16T17:31:40;16.30;99.90